createdAt,value
2023-04-15T00:00:07.530Z,4.50
2023-04-15T00:03:02.497Z,4.30
2023-04-15T00:05:31.883Z,3.90
2023-04-15T00:08:01.507Z,3.30
2023-04-15T00:10:29.670Z,3.40
2023-04-15T00:12:57.650Z,3.40
2023-04-15T00:15:25.714Z,3.40
2023-04-15T00:17:53.808Z,3.60
2023-04-15T00:20:22.062Z,4.10
2023-04-15T00:22:50.469Z,4.40
2023-04-15T00:25:18.506Z,4.10
2023-04-15T00:27:46.687Z,4.40
2023-04-15T00:30:17.111Z,4.20
2023-04-15T00:32:46.017Z,3.80
2023-04-15T00:35:14.294Z,3.80
2023-04-15T00:37:44.216Z,4.20
2023-04-15T00:40:17.481Z,4.20
2023-04-15T00:42:45.976Z,4.10
2023-04-15T00:45:15.870Z,3.60
2023-04-15T00:47:45.010Z,3.80
2023-04-15T00:50:13.465Z,3.60
2023-04-15T00:52:42.052Z,4.00
2023-04-15T00:55:11.377Z,4.90
2023-04-15T00:57:40.939Z,3.60
2023-04-15T01:00:11.516Z,3.80
2023-04-15T01:02:40.588Z,3.90
2023-04-15T01:05:09.671Z,3.70
2023-04-15T01:07:37.528Z,3.10
2023-04-15T01:10:06.111Z,2.60
2023-04-15T01:12:34.628Z,2.90
2023-04-15T01:15:04.655Z,2.50
2023-04-15T01:17:33.206Z,2.70
2023-04-15T01:20:01.270Z,2.40
2023-04-15T01:22:34.769Z,2.20
2023-04-15T01:25:17.881Z,2.30
2023-04-15T01:27:46.860Z,2.20
2023-04-15T01:30:15.673Z,2.20
2023-04-15T01:32:43.855Z,2.40
2023-04-15T01:35:13.557Z,2.80
2023-04-15T01:37:42.344Z,2.90
2023-04-15T01:40:10.925Z,2.20
2023-04-15T01:42:39.092Z,2.60
2023-04-15T01:45:08.504Z,2.50
2023-04-15T01:47:39.480Z,2.20
2023-04-15T01:50:08.694Z,1.60
2023-04-15T01:52:36.825Z,1.90
2023-04-15T01:55:06.527Z,2.10
2023-04-15T01:57:35.086Z,2.90
2023-04-15T02:00:04.817Z,2.10
2023-04-15T02:02:41.659Z,2.00
2023-04-15T02:05:10.070Z,1.60
2023-04-15T02:07:38.972Z,1.40
2023-04-15T02:10:07.388Z,1.50
2023-04-15T02:12:37.068Z,1.50
2023-04-15T02:15:06.625Z,1.90
2023-04-15T02:17:37.775Z,1.90
2023-04-15T02:20:07.224Z,2.30
2023-04-15T02:22:35.296Z,2.60
2023-04-15T02:25:03.729Z,2.80
2023-04-15T02:27:33.389Z,3.00
2023-04-15T02:30:01.939Z,3.00
2023-04-15T02:32:29.985Z,3.40
2023-04-15T02:35:03.138Z,3.70
2023-04-15T02:37:37.294Z,4.00
2023-04-15T02:40:07.582Z,4.10
2023-04-15T02:42:36.225Z,5.00
2023-04-15T02:45:05.117Z,4.20
2023-04-15T02:47:36.221Z,4.00
2023-04-15T02:50:12.826Z,4.10
2023-04-15T02:52:43.050Z,4.20
2023-04-15T02:55:11.924Z,3.60
2023-04-15T02:57:41.448Z,3.50
2023-04-15T03:00:12.157Z,4.20
2023-04-15T03:02:47.081Z,4.90
2023-04-15T03:05:15.568Z,4.00
2023-04-15T03:07:48.957Z,3.00
2023-04-15T03:10:17.369Z,3.90
2023-04-15T03:12:48.065Z,3.90
2023-04-15T03:15:19.409Z,3.60
2023-04-15T03:17:49.914Z,4.60
2023-04-15T03:20:18.498Z,5.30
2023-04-15T03:22:46.625Z,5.00
2023-04-15T03:25:14.973Z,5.00
2023-04-15T03:27:44.108Z,4.40
2023-04-15T03:30:13.003Z,4.20
2023-04-15T03:32:41.789Z,3.40
2023-04-15T03:35:10.117Z,4.00
2023-04-15T03:37:38.287Z,4.10
2023-04-15T03:40:07.680Z,3.50
2023-04-15T03:42:35.598Z,4.10
2023-04-15T03:45:04.414Z,3.90
2023-04-15T03:47:32.380Z,3.80
2023-04-15T03:50:00.685Z,4.20
2023-04-15T03:52:28.667Z,4.40
2023-04-15T03:54:57.135Z,4.10
2023-04-15T03:57:25.121Z,3.80
2023-04-15T03:59:53.470Z,4.00
2023-04-15T04:02:23.034Z,3.60
2023-04-15T04:04:51.512Z,4.30
2023-04-15T04:07:19.746Z,3.50
2023-04-15T04:09:48.022Z,3.60
2023-04-15T04:12:16.302Z,4.10
2023-04-15T04:14:44.533Z,3.60
2023-04-15T04:17:12.706Z,4.20
2023-04-15T04:19:41.015Z,4.50
2023-04-15T04:22:09.000Z,3.60
2023-04-15T04:24:37.060Z,3.50
2023-04-15T04:27:05.746Z,3.50
2023-04-15T04:29:33.866Z,3.60
2023-04-15T04:32:02.211Z,4.00
2023-04-15T04:34:30.423Z,4.50
2023-04-15T04:36:58.632Z,3.80
2023-04-15T04:39:26.675Z,3.30
2023-04-15T04:41:54.985Z,2.90
2023-04-15T04:44:22.877Z,3.90
2023-04-15T04:46:50.965Z,4.80
2023-04-15T04:49:18.993Z,6.40
2023-04-15T04:51:48.705Z,6.00
2023-04-15T04:54:17.282Z,6.00
2023-04-15T04:56:45.358Z,4.90
2023-04-15T04:59:13.426Z,5.40
2023-04-15T05:01:42.196Z,5.40
2023-04-15T05:04:10.394Z,5.40
2023-04-15T05:06:38.865Z,5.40
2023-04-15T05:09:07.455Z,5.70
2023-04-15T05:11:35.469Z,5.90
2023-04-15T05:14:03.595Z,5.60
2023-04-15T05:16:31.614Z,5.90
2023-04-15T05:18:59.907Z,6.10
2023-04-15T05:21:28.419Z,6.70
2023-04-15T05:23:56.544Z,6.10
2023-04-15T05:26:24.614Z,6.00
2023-04-15T05:28:52.737Z,7.40
2023-04-15T05:31:21.321Z,6.20
2023-04-15T05:33:49.487Z,6.10
2023-04-15T05:36:17.681Z,5.50
2023-04-15T05:38:46.251Z,6.10
2023-04-15T05:41:18.387Z,6.00
2023-04-15T05:43:48.135Z,5.90
2023-04-15T05:46:16.663Z,6.30
2023-04-15T05:48:44.764Z,6.30
2023-04-15T05:51:12.946Z,6.00
2023-04-15T05:53:44.179Z,5.60
2023-04-15T05:56:12.344Z,6.70
2023-04-15T05:58:40.429Z,6.80
2023-04-15T06:01:08.609Z,7.00
2023-04-15T06:03:36.929Z,7.90
2023-04-15T06:06:04.989Z,7.10
2023-04-15T06:08:33.200Z,6.80
2023-04-15T06:11:01.685Z,8.00
2023-04-15T06:13:29.873Z,8.30
2023-04-15T06:15:57.883Z,7.20
2023-04-15T06:18:26.015Z,7.50
2023-04-15T06:20:54.095Z,7.50
2023-04-15T06:23:22.353Z,7.60
2023-04-15T06:25:50.512Z,7.00
2023-04-15T06:28:18.829Z,7.10
2023-04-15T06:30:47.081Z,6.50
2023-04-15T06:33:16.083Z,7.20
2023-04-15T06:35:44.148Z,7.40
2023-04-15T06:38:12.123Z,6.10
2023-04-15T06:40:40.700Z,6.60
2023-04-15T06:43:09.345Z,7.30
2023-04-15T06:45:37.411Z,5.90
2023-04-15T06:48:06.042Z,5.10
2023-04-15T06:50:35.759Z,5.50
2023-04-15T06:53:03.926Z,4.90
2023-04-15T06:55:32.415Z,5.50
2023-04-15T06:58:00.760Z,6.40
2023-04-15T07:00:28.854Z,6.70
2023-04-15T07:02:57.290Z,7.00
2023-04-15T07:05:25.614Z,7.90
2023-04-15T07:07:53.591Z,7.10
2023-04-15T07:10:22.234Z,7.60
2023-04-15T07:12:51.768Z,7.50
2023-04-15T07:15:20.189Z,8.40
2023-04-15T07:17:48.440Z,6.80
2023-04-15T07:20:16.691Z,7.30
2023-04-15T07:22:44.666Z,7.10
2023-04-15T07:25:12.731Z,7.30
2023-04-15T07:27:41.009Z,5.30
2023-04-15T07:30:10.018Z,4.30
2023-04-15T07:32:38.217Z,3.90
2023-04-15T07:35:06.944Z,1.90
2023-04-15T07:37:35.027Z,1.60
2023-04-15T07:40:07.110Z,1.70
2023-04-15T07:42:35.987Z,1.90
2023-04-15T07:45:04.256Z,1.90
2023-04-15T07:47:32.306Z,1.90
2023-04-15T07:50:00.689Z,1.50
2023-04-15T07:52:28.991Z,2.20
2023-04-15T07:54:57.051Z,3.30
2023-04-15T07:57:25.233Z,2.70
2023-04-15T07:59:53.718Z,2.30
2023-04-15T08:02:22.527Z,2.50
2023-04-15T08:04:50.960Z,1.70
2023-04-15T08:07:19.251Z,0.50
2023-04-15T08:09:47.729Z,0.40
2023-04-15T08:12:16.224Z,0.50
2023-04-15T08:14:44.508Z,0.30
2023-04-15T08:17:12.568Z,0.50
2023-04-15T08:19:41.149Z,0.40
2023-04-15T08:22:10.430Z,0.40
2023-04-15T08:24:43.960Z,0.40
2023-04-15T08:27:12.114Z,0.30
2023-04-15T08:29:40.823Z,0.40
2023-04-15T08:32:09.890Z,0.60
2023-04-15T08:34:37.858Z,0.60
2023-04-15T08:37:06.544Z,0.60
2023-04-15T08:39:34.620Z,0.70
2023-04-15T08:42:04.149Z,0.30
2023-04-15T08:44:35.164Z,0.50
2023-04-15T08:47:06.182Z,0.50
2023-04-15T08:49:37.685Z,1.20
2023-04-15T08:52:06.741Z,1.60
2023-04-15T08:54:35.736Z,2.10
2023-04-15T08:57:04.234Z,1.40
2023-04-15T08:59:32.782Z,0.50
2023-04-15T09:02:01.413Z,0.80
2023-04-15T09:04:30.071Z,0.60
2023-04-15T09:06:58.555Z,0.50
2023-04-15T09:09:28.161Z,0.80
2023-04-15T09:11:56.953Z,0.70
2023-04-15T09:14:25.338Z,0.70
2023-04-15T09:17:01.512Z,0.80
2023-04-15T09:19:31.186Z,0.60
2023-04-15T09:22:00.006Z,0.70
2023-04-15T09:24:37.716Z,0.50
2023-04-15T09:27:06.494Z,0.80
2023-04-15T09:29:34.659Z,1.20
2023-04-15T09:32:16.732Z,0.60
2023-04-15T09:37:28.605Z,0.60
2023-04-15T09:39:59.547Z,0.60
2023-04-15T09:42:28.462Z,0.90
2023-04-15T09:44:56.743Z,0.70
2023-04-15T09:47:32.408Z,0.70
2023-04-15T09:50:02.122Z,0.60
2023-04-15T09:52:30.996Z,0.60
2023-04-15T09:55:00.928Z,0.90
2023-04-15T09:57:36.644Z,1.00
2023-04-15T10:00:08.275Z,0.90
2023-04-15T10:02:38.511Z,0.90
2023-04-15T10:05:08.689Z,0.90
2023-04-15T10:07:38.118Z,0.60
2023-04-15T10:10:07.281Z,0.80
2023-04-15T10:12:38.405Z,0.90
2023-04-15T10:15:11.393Z,1.00
2023-04-15T10:17:44.334Z,0.80
2023-04-15T10:20:14.737Z,0.80
2023-04-15T10:22:45.473Z,0.90
2023-04-15T10:25:16.588Z,0.80
2023-04-15T10:27:45.669Z,0.80
2023-04-15T10:30:14.518Z,0.80
2023-04-15T10:32:43.511Z,0.70
2023-04-15T10:35:12.156Z,0.70
2023-04-15T10:37:40.198Z,1.20
2023-04-15T10:40:29.002Z,0.90
2023-04-15T10:42:59.678Z,0.70
2023-04-15T10:45:32.265Z,0.90
2023-04-15T10:48:03.741Z,0.60
2023-04-15T10:53:04.998Z,0.80
2023-04-15T10:55:34.911Z,0.90
2023-04-15T10:58:03.647Z,0.70
2023-04-15T11:00:34.591Z,0.50
2023-04-15T11:03:08.333Z,0.60
2023-04-15T11:05:39.760Z,0.90
2023-04-15T11:08:09.041Z,0.80
2023-04-15T11:10:37.018Z,0.90
2023-04-15T11:13:11.261Z,0.50
2023-04-15T11:15:41.799Z,0.50
2023-04-15T11:18:13.656Z,0.90
2023-04-15T11:21:03.707Z,0.70
2023-04-15T11:23:49.432Z,1.00
2023-04-15T11:26:17.841Z,0.70
2023-04-15T11:28:47.081Z,0.90
2023-04-15T11:31:18.542Z,1.10
2023-04-15T11:33:56.690Z,0.90
2023-04-15T11:36:29.357Z,0.90
2023-04-15T11:38:59.146Z,0.90
2023-04-15T11:41:27.451Z,0.90
2023-04-15T11:43:55.608Z,0.80
2023-04-15T11:46:31.027Z,1.10
2023-04-15T11:49:00.340Z,0.80
2023-04-15T11:51:33.100Z,0.80
2023-04-15T11:54:01.298Z,1.00
2023-04-15T11:56:29.650Z,0.70
2023-04-15T11:59:03.079Z,1.20
2023-04-15T12:01:43.100Z,1.70
2023-04-15T12:04:13.012Z,1.20
2023-04-15T12:06:41.383Z,0.80
2023-04-15T12:09:16.996Z,0.90
2023-04-15T12:11:53.103Z,1.00
2023-04-15T12:14:32.041Z,0.80
2023-04-15T12:17:05.535Z,0.70
2023-04-15T12:19:37.724Z,0.70
2023-04-15T12:22:15.382Z,0.70
2023-04-15T12:24:47.076Z,0.90
2023-04-15T12:29:44.698Z,0.80
2023-04-15T12:32:17.705Z,0.70
2023-04-15T12:34:51.602Z,0.80
2023-04-15T12:37:19.775Z,0.90
2023-04-15T12:39:50.533Z,0.90
2023-04-15T12:42:19.160Z,0.90
2023-04-15T12:44:47.881Z,0.90
2023-04-15T12:47:16.256Z,1.30
2023-04-15T12:49:44.333Z,1.10
2023-04-15T12:52:12.291Z,1.10
2023-04-15T12:54:40.643Z,0.80
2023-04-15T12:57:09.156Z,0.80
2023-04-15T12:59:37.670Z,0.90
2023-04-15T13:02:06.260Z,0.80
2023-04-15T13:04:34.634Z,0.70
2023-04-15T13:07:03.189Z,0.90
2023-04-15T13:09:31.458Z,0.70
2023-04-15T13:11:59.761Z,0.60
2023-04-15T13:14:27.951Z,0.90
2023-04-15T13:16:56.437Z,0.80
2023-04-15T13:19:24.869Z,1.30
2023-04-15T13:21:52.927Z,0.90
2023-04-15T13:24:21.161Z,1.00
2023-04-15T13:26:50.489Z,1.00
2023-04-15T13:29:18.990Z,0.80
2023-04-15T13:31:47.087Z,0.80
2023-04-15T13:34:15.735Z,0.80
2023-04-15T13:36:43.822Z,0.50
2023-04-15T13:39:11.834Z,0.70
2023-04-15T13:41:41.045Z,0.60
2023-04-15T13:44:09.013Z,0.70
2023-04-15T13:46:38.006Z,0.70
2023-04-15T13:49:06.324Z,0.60
2023-04-15T13:51:36.995Z,0.70
2023-04-15T13:54:05.452Z,0.60
2023-04-15T13:56:34.008Z,0.40
2023-04-15T13:59:03.483Z,0.40
2023-04-15T14:01:31.777Z,0.40
2023-04-15T14:03:59.960Z,0.50
2023-04-15T14:06:29.270Z,0.40
2023-04-15T14:08:57.537Z,0.40
2023-04-15T14:11:25.710Z,0.50
2023-04-15T14:13:53.705Z,0.60
2023-04-15T14:16:21.996Z,0.40
2023-04-15T14:18:50.023Z,0.40
2023-04-15T14:21:18.082Z,0.40
2023-04-15T14:23:46.472Z,0.50
2023-04-15T14:26:14.867Z,0.50
2023-04-15T14:28:45.147Z,0.40
2023-04-15T14:31:14.497Z,0.40
2023-04-15T14:33:43.043Z,0.50
2023-04-15T14:36:11.223Z,0.50
2023-04-15T14:38:40.201Z,0.40
2023-04-15T14:41:08.797Z,0.50
2023-04-15T14:43:36.978Z,0.50
2023-04-15T14:46:05.209Z,0.40
2023-04-15T14:48:33.431Z,0.50
2023-04-15T14:51:01.554Z,0.80
2023-04-15T14:53:29.735Z,0.50
2023-04-15T14:55:57.833Z,0.80
2023-04-15T14:58:26.215Z,0.70
2023-04-15T15:00:54.514Z,0.80
2023-04-15T15:03:24.028Z,0.80
2023-04-15T15:05:52.363Z,0.60
2023-04-15T15:08:20.728Z,0.60
2023-04-15T15:10:49.883Z,0.90
2023-04-15T15:13:18.994Z,0.50
2023-04-15T15:15:49.767Z,0.40
2023-04-15T15:18:19.406Z,0.90
2023-04-15T15:20:48.223Z,0.50
2023-04-15T15:23:16.655Z,0.60
2023-04-15T15:25:45.952Z,1.00
2023-04-15T15:28:14.147Z,1.40
2023-04-15T15:30:42.182Z,3.10
2023-04-15T15:33:10.246Z,3.40
2023-04-15T15:35:39.161Z,1.60
2023-04-15T15:38:07.324Z,0.80
2023-04-15T15:40:35.403Z,0.60
2023-04-15T15:43:04.496Z,0.50
2023-04-15T15:45:32.780Z,0.50
2023-04-15T15:48:01.934Z,0.70
2023-04-15T15:50:30.126Z,0.60
2023-04-15T15:52:58.973Z,0.60
2023-04-15T15:55:27.601Z,0.40
2023-04-15T15:57:55.683Z,0.40
2023-04-15T16:00:24.672Z,0.60
2023-04-15T16:03:06.888Z,0.70
2023-04-15T16:05:36.798Z,0.80
2023-04-15T16:08:05.537Z,0.60
2023-04-15T16:10:33.854Z,0.60
2023-04-15T16:13:02.519Z,0.80
2023-04-15T16:15:30.612Z,0.90
2023-04-15T16:17:58.642Z,0.60
2023-04-15T16:20:28.543Z,0.70
2023-04-15T16:22:58.604Z,0.50
2023-04-15T16:25:26.878Z,0.90
2023-04-15T16:28:03.416Z,0.50
2023-04-15T16:30:41.554Z,0.50
2023-04-15T16:33:10.208Z,0.70
2023-04-15T16:35:38.215Z,0.60
2023-04-15T16:38:06.800Z,0.80
2023-04-15T16:40:35.191Z,0.50
2023-04-15T16:43:03.700Z,0.70
2023-04-15T16:45:31.832Z,0.50
2023-04-15T16:48:00.206Z,0.60
2023-04-15T16:50:28.582Z,0.40
2023-04-15T16:52:56.555Z,0.50
2023-04-15T16:55:24.719Z,0.40
2023-04-15T16:58:03.254Z,0.40
2023-04-15T17:00:32.950Z,0.50
2023-04-15T17:03:01.540Z,0.60
2023-04-15T17:05:33.717Z,0.80
2023-04-15T17:08:01.784Z,1.10
2023-04-15T17:10:31.279Z,1.40
2023-04-15T17:12:59.858Z,1.20
2023-04-15T17:15:28.079Z,1.50
2023-04-15T17:17:56.531Z,1.70
2023-04-15T17:20:24.879Z,1.70
2023-04-15T17:22:52.974Z,1.70
2023-04-15T17:25:21.134Z,1.60
2023-04-15T17:27:49.206Z,2.20
2023-04-15T17:30:17.479Z,2.60
2023-04-15T17:32:45.653Z,2.50
2023-04-15T17:35:13.747Z,3.10
2023-04-15T17:37:41.880Z,3.40
2023-04-15T17:40:10.801Z,3.20
2023-04-15T17:42:38.732Z,3.40
2023-04-15T17:45:07.837Z,3.40
2023-04-15T17:47:35.871Z,3.90
2023-04-15T17:50:04.735Z,3.30
2023-04-15T17:52:32.768Z,3.80
2023-04-15T17:55:00.961Z,4.00
2023-04-15T17:57:29.330Z,3.80
2023-04-15T17:59:58.105Z,5.90
2023-04-15T18:02:26.392Z,5.70
2023-04-15T18:04:54.884Z,5.20
2023-04-15T18:07:23.266Z,5.30
2023-04-15T18:09:53.356Z,4.20
2023-04-15T18:12:21.374Z,3.90
2023-04-15T18:14:49.404Z,3.70
2023-04-15T18:17:17.813Z,4.40
2023-04-15T18:19:46.631Z,4.20
2023-04-15T18:22:14.735Z,4.00
2023-04-15T18:24:42.700Z,2.70
2023-04-15T18:27:10.981Z,2.70
2023-04-15T18:29:39.325Z,2.80
2023-04-15T18:32:07.405Z,3.20
2023-04-15T18:34:35.779Z,3.00
2023-04-15T18:37:05.518Z,2.60
2023-04-15T18:39:33.591Z,2.50
2023-04-15T18:42:02.175Z,3.70
2023-04-15T18:44:30.512Z,2.90
2023-04-15T18:46:58.482Z,2.90
2023-04-15T18:49:27.609Z,3.40
2023-04-15T18:51:55.679Z,3.10
2023-04-15T18:54:23.756Z,3.10
2023-04-15T18:56:51.832Z,2.80
2023-04-15T18:59:29.118Z,3.60
2023-04-15T19:02:00.564Z,3.30
2023-04-15T19:04:31.460Z,2.60
2023-04-15T19:06:59.771Z,3.10
2023-04-15T19:09:29.018Z,2.20
2023-04-15T19:11:57.718Z,2.60
2023-04-15T19:14:25.824Z,2.50
2023-04-15T19:16:54.054Z,2.60
2023-04-15T19:19:22.213Z,2.20
2023-04-15T19:21:50.561Z,2.00
2023-04-15T19:24:19.609Z,2.10
2023-04-15T19:26:50.819Z,2.20
2023-04-15T19:29:19.173Z,2.20
2023-04-15T19:31:47.133Z,2.30
2023-04-15T19:34:15.512Z,2.50
2023-04-15T19:36:43.585Z,2.80
2023-04-15T19:39:11.736Z,2.90
2023-04-15T19:41:40.257Z,2.60
2023-04-15T19:44:08.303Z,2.60
2023-04-15T19:46:36.311Z,3.10
2023-04-15T19:49:04.804Z,3.50
2023-04-15T19:51:33.250Z,3.40
2023-04-15T19:54:01.311Z,3.40
2023-04-15T19:56:30.409Z,2.80
2023-04-15T19:59:00.094Z,3.10
2023-04-15T20:01:28.314Z,3.00
2023-04-15T20:03:56.881Z,3.10
2023-04-15T20:06:25.144Z,3.10
2023-04-15T20:08:53.311Z,4.00
2023-04-15T20:11:22.309Z,4.10
2023-04-15T20:13:50.379Z,4.10
2023-04-15T20:16:18.395Z,3.80
2023-04-15T20:18:46.527Z,4.50
2023-04-15T20:21:14.711Z,6.60
2023-04-15T20:23:42.862Z,6.50
2023-04-15T20:26:10.829Z,7.60
2023-04-15T20:28:39.104Z,8.20
2023-04-15T20:31:07.546Z,7.30
2023-04-15T20:33:35.778Z,7.40
2023-04-15T20:36:04.031Z,6.40
2023-04-15T20:38:32.104Z,7.20
2023-04-15T20:41:00.175Z,5.10
2023-04-15T20:43:28.350Z,5.10
2023-04-15T20:45:58.774Z,4.30
2023-04-15T20:48:30.650Z,3.90
2023-04-15T20:50:59.014Z,2.50
2023-04-15T20:53:27.181Z,4.10
2023-04-15T20:55:55.150Z,5.30
2023-04-15T20:58:23.319Z,3.50
2023-04-15T21:00:52.661Z,2.50
2023-04-15T21:03:22.471Z,3.10
2023-04-15T21:05:51.014Z,3.20
2023-04-15T21:08:19.192Z,2.50
2023-04-15T21:10:47.264Z,2.50
2023-04-15T21:13:17.674Z,2.00
2023-04-15T21:15:47.685Z,3.10
2023-04-15T21:18:15.891Z,3.00
2023-04-15T21:20:43.951Z,2.50
2023-04-15T21:23:13.079Z,1.80
2023-04-15T21:25:41.327Z,2.10
2023-04-15T21:28:09.500Z,1.70
2023-04-15T21:30:37.370Z,2.00
2023-04-15T21:33:05.573Z,2.00
2023-04-15T21:35:33.606Z,2.10
2023-04-15T21:38:01.783Z,2.20
2023-04-15T21:40:30.556Z,1.80
2023-04-15T21:42:58.536Z,2.00
2023-04-15T21:45:26.613Z,2.20
2023-04-15T21:48:04.402Z,2.30
2023-04-15T21:50:37.306Z,1.60
2023-04-15T21:53:07.857Z,1.80
2023-04-15T21:55:36.627Z,2.20
2023-04-15T21:58:04.678Z,1.70
2023-04-15T22:00:32.838Z,1.80
2023-04-15T22:03:01.021Z,2.30
2023-04-15T22:05:29.198Z,1.90
2023-04-15T22:07:58.492Z,1.70
2023-04-15T22:10:26.738Z,1.60
2023-04-15T22:12:55.042Z,1.60
2023-04-15T22:15:23.825Z,1.30
2023-04-15T22:17:51.946Z,2.10
2023-04-15T22:20:21.705Z,2.60
2023-04-15T22:22:49.774Z,2.80
2023-04-15T22:25:22.579Z,2.60
2023-04-15T22:27:50.671Z,2.30
2023-04-15T22:30:19.220Z,2.50
2023-04-15T22:32:47.314Z,1.80
2023-04-15T22:35:15.458Z,1.40
2023-04-15T22:37:43.419Z,1.40
2023-04-15T22:40:12.229Z,1.70
2023-04-15T22:42:40.590Z,2.00
2023-04-15T22:45:09.379Z,2.70
2023-04-15T22:47:37.581Z,3.20
2023-04-15T22:50:06.849Z,2.50
2023-04-15T22:52:34.809Z,2.40
2023-04-15T22:55:02.846Z,1.40
2023-04-15T22:57:30.928Z,1.40
2023-04-15T22:59:59.043Z,1.40
2023-04-15T23:02:27.460Z,2.20
2023-04-15T23:04:56.711Z,2.00
2023-04-15T23:07:24.780Z,2.20
2023-04-15T23:09:52.737Z,2.00
2023-04-15T23:12:20.816Z,2.50
2023-04-15T23:14:48.880Z,2.30
2023-04-15T23:17:16.958Z,2.30
2023-04-15T23:19:45.030Z,1.80
2023-04-15T23:22:13.011Z,2.00
2023-04-15T23:24:40.964Z,2.70
2023-04-15T23:27:09.144Z,3.60
2023-04-15T23:29:37.418Z,3.30
2023-04-15T23:32:06.262Z,3.90
2023-04-15T23:34:34.476Z,3.20
2023-04-15T23:37:02.447Z,2.90
2023-04-15T23:39:30.717Z,2.50
2023-04-15T23:41:58.783Z,2.50
2023-04-15T23:44:27.269Z,2.60
2023-04-15T23:46:55.597Z,2.60
2023-04-15T23:49:23.834Z,2.40
2023-04-15T23:51:51.910Z,2.30
2023-04-15T23:54:20.173Z,2.70
2023-04-15T23:56:48.232Z,2.60
2023-04-15T23:59:16.310Z,3.10
